sensor_id;sensor_type;location;lat;lon;timestamp;temperature;humidity
26579;DHT22;14227;47.674;19.320;2023-05-10T00:01:38;9.30;52.10
26579;DHT22;14227;47.674;19.320;2023-05-10T00:04:03;9.20;51.90
26579;DHT22;14227;47.674;19.320;2023-05-10T00:06:29;9.10;52.10
26579;DHT22;14227;47.674;19.320;2023-05-10T00:08:55;9.00;52.90
26579;DHT22;14227;47.674;19.320;2023-05-10T00:11:21;8.90;52.90
26579;DHT22;14227;47.674;19.320;2023-05-10T00:13:47;8.80;52.40
26579;DHT22;14227;47.674;19.320;2023-05-10T00:16:13;8.70;52.40
26579;DHT22;14227;47.674;19.320;2023-05-10T00:18:39;8.50;52.70
26579;DHT22;14227;47.674;19.320;2023-05-10T00:21:05;8.40;52.70
26579;DHT22;14227;47.674;19.320;2023-05-10T00:23:31;8.30;51.90
26579;DHT22;14227;47.674;19.320;2023-05-10T00:25:57;8.10;52.00
26579;DHT22;14227;47.674;19.320;2023-05-10T00:28:23;8.00;52.90
26579;DHT22;14227;47.674;19.320;2023-05-10T00:30:49;7.90;53.40
26579;DHT22;14227;47.674;19.320;2023-05-10T00:33:14;7.80;53.70
26579;DHT22;14227;47.674;19.320;2023-05-10T00:35:40;7.70;54.40
26579;DHT22;14227;47.674;19.320;2023-05-10T00:38:06;7.70;54.70
26579;DHT22;14227;47.674;19.320;2023-05-10T00:40:32;7.70;55.00
26579;DHT22;14227;47.674;19.320;2023-05-10T00:42:57;7.80;55.10
26579;DHT22;14227;47.674;19.320;2023-05-10T00:45:24;7.90;55.20
26579;DHT22;14227;47.674;19.320;2023-05-10T00:47:51;7.90;55.20
26579;DHT22;14227;47.674;19.320;2023-05-10T00:50:21;8.00;55.20
26579;DHT22;14227;47.674;19.320;2023-05-10T00:52:47;8.00;54.20
26579;DHT22;14227;47.674;19.320;2023-05-10T00:55:12;8.10;54.00
26579;DHT22;14227;47.674;19.320;2023-05-10T00:57:38;8.10;54.10
26579;DHT22;14227;47.674;19.320;2023-05-10T01:00:05;8.20;54.10
26579;DHT22;14227;47.674;19.320;2023-05-10T01:02:31;8.10;54.50
26579;DHT22;14227;47.674;19.320;2023-05-10T01:04:59;8.20;53.80
26579;DHT22;14227;47.674;19.320;2023-05-10T01:07:25;8.20;54.30
26579;DHT22;14227;47.674;19.320;2023-05-10T01:09:51;8.30;54.40
26579;DHT22;14227;47.674;19.320;2023-05-10T01:12:17;8.30;54.20
26579;DHT22;14227;47.674;19.320;2023-05-10T01:14:43;8.30;54.10
26579;DHT22;14227;47.674;19.320;2023-05-10T01:17:10;8.30;54.80
26579;DHT22;14227;47.674;19.320;2023-05-10T01:19:36;8.30;55.50
26579;DHT22;14227;47.674;19.320;2023-05-10T01:30:42;8.60;55.10
26579;DHT22;14227;47.674;19.320;2023-05-10T01:33:19;8.70;54.80
26579;DHT22;14227;47.674;19.320;2023-05-10T01:36:38;8.80;55.20
26579;DHT22;14227;47.674;19.320;2023-05-10T01:38:53;8.80;55.60
26579;DHT22;14227;47.674;19.320;2023-05-10T01:44:23;8.90;55.70
26579;DHT22;14227;47.674;19.320;2023-05-10T01:50:02;9.00;56.20
26579;DHT22;14227;47.674;19.320;2023-05-10T01:52:42;9.10;56.20
26579;DHT22;14227;47.674;19.320;2023-05-10T01:55:13;9.10;55.60
26579;DHT22;14227;47.674;19.320;2023-05-10T01:57:43;9.30;56.10
26579;DHT22;14227;47.674;19.320;2023-05-10T02:00:10;9.40;55.60
26579;DHT22;14227;47.674;19.320;2023-05-10T02:02:40;9.50;55.40
26579;DHT22;14227;47.674;19.320;2023-05-10T02:05:08;9.60;55.50
26579;DHT22;14227;47.674;19.320;2023-05-10T02:07:36;9.70;55.40
26579;DHT22;14227;47.674;19.320;2023-05-10T02:10:04;9.80;55.30
26579;DHT22;14227;47.674;19.320;2023-05-10T02:12:34;9.80;55.10
26579;DHT22;14227;47.674;19.320;2023-05-10T02:15:02;9.90;55.10
26579;DHT22;14227;47.674;19.320;2023-05-10T02:17:31;9.90;54.90
26579;DHT22;14227;47.674;19.320;2023-05-10T02:19:58;10.00;54.90
26579;DHT22;14227;47.674;19.320;2023-05-10T02:22:26;10.00;54.70
26579;DHT22;14227;47.674;19.320;2023-05-10T02:24:54;10.10;54.60
26579;DHT22;14227;47.674;19.320;2023-05-10T02:27:22;10.10;54.60
26579;DHT22;14227;47.674;19.320;2023-05-10T02:29:50;10.20;54.30
26579;DHT22;14227;47.674;19.320;2023-05-10T02:32:16;10.20;54.40
26579;DHT22;14227;47.674;19.320;2023-05-10T02:34:44;10.20;54.30
26579;DHT22;14227;47.674;19.320;2023-05-10T02:37:13;10.30;54.30
26579;DHT22;14227;47.674;19.320;2023-05-10T02:39:40;10.30;54.40
26579;DHT22;14227;47.674;19.320;2023-05-10T02:42:18;10.40;54.60
26579;DHT22;14227;47.674;19.320;2023-05-10T02:45:21;10.40;55.10
26579;DHT22;14227;47.674;19.320;2023-05-10T02:47:49;10.50;54.50
26579;DHT22;14227;47.674;19.320;2023-05-10T02:50:15;10.50;55.00
26579;DHT22;14227;47.674;19.320;2023-05-10T02:52:44;10.50;55.40
26579;DHT22;14227;47.674;19.320;2023-05-10T02:55:15;10.50;56.50
26579;DHT22;14227;47.674;19.320;2023-05-10T03:01:28;10.50;56.90
26579;DHT22;14227;47.674;19.320;2023-05-10T03:03:54;10.50;57.60
26579;DHT22;14227;47.674;19.320;2023-05-10T03:06:20;10.40;58.80
26579;DHT22;14227;47.674;19.320;2023-05-10T03:18:46;10.40;59.60
26579;DHT22;14227;47.674;19.320;2023-05-10T03:24:11;10.40;60.70
26579;DHT22;14227;47.674;19.320;2023-05-10T03:26:44;10.50;60.80
26579;DHT22;14227;47.674;19.320;2023-05-10T03:29:13;10.40;61.00
26579;DHT22;14227;47.674;19.320;2023-05-10T03:31:39;10.50;61.10
26579;DHT22;14227;47.674;19.320;2023-05-10T03:34:05;10.50;61.40
26579;DHT22;14227;47.674;19.320;2023-05-10T03:36:32;10.60;61.50
26579;DHT22;14227;47.674;19.320;2023-05-10T03:38:58;10.60;62.30
26579;DHT22;14227;47.674;19.320;2023-05-10T03:41:23;10.60;62.10
26579;DHT22;14227;47.674;19.320;2023-05-10T03:43:51;10.60;63.00
26579;DHT22;14227;47.674;19.320;2023-05-10T03:46:16;10.60;63.00
26579;DHT22;14227;47.674;19.320;2023-05-10T03:52:23;10.70;62.50
26579;DHT22;14227;47.674;19.320;2023-05-10T03:54:49;10.70;61.70
26579;DHT22;14227;47.674;19.320;2023-05-10T03:57:14;10.80;61.80
26579;DHT22;14227;47.674;19.320;2023-05-10T03:59:40;10.80;61.90
26579;DHT22;14227;47.674;19.320;2023-05-10T04:02:06;10.90;61.90
26579;DHT22;14227;47.674;19.320;2023-05-10T04:04:31;10.90;62.50
26579;DHT22;14227;47.674;19.320;2023-05-10T04:06:57;10.90;62.50
26579;DHT22;14227;47.674;19.320;2023-05-10T04:09:23;10.90;62.50
26579;DHT22;14227;47.674;19.320;2023-05-10T04:11:48;11.00;62.20
26579;DHT22;14227;47.674;19.320;2023-05-10T04:14:15;11.00;62.30
26579;DHT22;14227;47.674;19.320;2023-05-10T04:16:41;11.00;62.20
26579;DHT22;14227;47.674;19.320;2023-05-10T04:19:06;11.00;62.00
26579;DHT22;14227;47.674;19.320;2023-05-10T04:21:32;11.00;61.90
26579;DHT22;14227;47.674;19.320;2023-05-10T04:23:58;11.00;61.80
26579;DHT22;14227;47.674;19.320;2023-05-10T04:29:27;11.00;62.70
26579;DHT22;14227;47.674;19.320;2023-05-10T04:31:53;11.10;62.10
26579;DHT22;14227;47.674;19.320;2023-05-10T04:34:20;11.10;62.20
26579;DHT22;14227;47.674;19.320;2023-05-10T04:36:46;11.20;62.30
26579;DHT22;14227;47.674;19.320;2023-05-10T04:39:12;11.30;62.10
26579;DHT22;14227;47.674;19.320;2023-05-10T04:41:41;11.40;62.00
26579;DHT22;14227;47.674;19.320;2023-05-10T04:44:06;11.50;61.70
26579;DHT22;14227;47.674;19.320;2023-05-10T04:46:32;11.70;62.20
26579;DHT22;14227;47.674;19.320;2023-05-10T04:49:11;11.80;61.90
26579;DHT22;14227;47.674;19.320;2023-05-10T04:55:02;12.00;62.20
26579;DHT22;14227;47.674;19.320;2023-05-10T05:01:09;12.40;61.60
26579;DHT22;14227;47.674;19.320;2023-05-10T05:06:57;12.80;61.30
26579;DHT22;14227;47.674;19.320;2023-05-10T05:09:24;13.00;61.10
26579;DHT22;14227;47.674;19.320;2023-05-10T05:11:50;13.20;60.90
26579;DHT22;14227;47.674;19.320;2023-05-10T05:14:15;13.40;60.00
26579;DHT22;14227;47.674;19.320;2023-05-10T05:19:26;13.70;59.50
26579;DHT22;14227;47.674;19.320;2023-05-10T05:21:52;13.80;59.60
26579;DHT22;14227;47.674;19.320;2023-05-10T05:24:18;13.90;59.20
26579;DHT22;14227;47.674;19.320;2023-05-10T05:26:44;14.20;59.20
26579;DHT22;14227;47.674;19.320;2023-05-10T05:29:09;14.40;58.00
26579;DHT22;14227;47.674;19.320;2023-05-10T05:35:07;15.10;57.20
26579;DHT22;14227;47.674;19.320;2023-05-10T05:40:58;15.90;54.50
26579;DHT22;14227;47.674;19.320;2023-05-10T05:43:23;16.10;52.50
26579;DHT22;14227;47.674;19.320;2023-05-10T05:45:51;16.60;52.00
26579;DHT22;14227;47.674;19.320;2023-05-10T05:48:17;16.90;49.70
26579;DHT22;14227;47.674;19.320;2023-05-10T05:50:42;17.00;47.70
26579;DHT22;14227;47.674;19.320;2023-05-10T05:53:09;17.40;48.00
26579;DHT22;14227;47.674;19.320;2023-05-10T05:55:34;17.60;46.70
26579;DHT22;14227;47.674;19.320;2023-05-10T05:58:00;17.70;45.90
26579;DHT22;14227;47.674;19.320;2023-05-10T06:00:26;17.80;45.30
26579;DHT22;14227;47.674;19.320;2023-05-10T06:02:52;17.70;45.00
26579;DHT22;14227;47.674;19.320;2023-05-10T06:05:17;18.00;45.40
26579;DHT22;14227;47.674;19.320;2023-05-10T06:07:43;18.80;44.50
26579;DHT22;14227;47.674;19.320;2023-05-10T06:10:09;19.30;42.00
26579;DHT22;14227;47.674;19.320;2023-05-10T06:12:35;19.80;40.40
26579;DHT22;14227;47.674;19.320;2023-05-10T06:15:01;20.70;39.20
26579;DHT22;14227;47.674;19.320;2023-05-10T06:17:27;21.60;36.60
26579;DHT22;14227;47.674;19.320;2023-05-10T06:19:53;22.30;36.00
26579;DHT22;14227;47.674;19.320;2023-05-10T06:22:18;22.80;32.50
26579;DHT22;14227;47.674;19.320;2023-05-10T06:24:44;23.10;30.80
26579;DHT22;14227;47.674;19.320;2023-05-10T06:27:09;23.40;30.40
26579;DHT22;14227;47.674;19.320;2023-05-10T06:29:35;23.60;29.40
26579;DHT22;14227;47.674;19.320;2023-05-10T06:32:01;24.10;29.00
26579;DHT22;14227;47.674;19.320;2023-05-10T06:34:27;23.90;28.00
26579;DHT22;14227;47.674;19.320;2023-05-10T06:36:53;23.80;28.00
26579;DHT22;14227;47.674;19.320;2023-05-10T06:39:18;23.90;27.70
26579;DHT22;14227;47.674;19.320;2023-05-10T06:41:44;24.00;27.20
26579;DHT22;14227;47.674;19.320;2023-05-10T06:44:10;24.50;26.50
26579;DHT22;14227;47.674;19.320;2023-05-10T06:46:36;24.80;26.10
26579;DHT22;14227;47.674;19.320;2023-05-10T06:49:02;24.90;26.40
26579;DHT22;14227;47.674;19.320;2023-05-10T06:51:28;25.30;25.20
26579;DHT22;14227;47.674;19.320;2023-05-10T06:53:53;26.00;25.10
26579;DHT22;14227;47.674;19.320;2023-05-10T06:56:19;26.40;24.00
26579;DHT22;14227;47.674;19.320;2023-05-10T06:58:49;26.20;23.20
26579;DHT22;14227;47.674;19.320;2023-05-10T07:01:15;26.40;23.50
26579;DHT22;14227;47.674;19.320;2023-05-10T07:03:40;26.30;23.00
26579;DHT22;14227;47.674;19.320;2023-05-10T07:06:06;26.30;23.00
26579;DHT22;14227;47.674;19.320;2023-05-10T07:08:33;26.00;22.80
26579;DHT22;14227;47.674;19.320;2023-05-10T07:11:03;25.90;22.80
26579;DHT22;14227;47.674;19.320;2023-05-10T07:13:32;26.40;23.00
26579;DHT22;14227;47.674;19.320;2023-05-10T07:15:58;26.70;22.50
26579;DHT22;14227;47.674;19.320;2023-05-10T07:18:24;27.00;22.30
26579;DHT22;14227;47.674;19.320;2023-05-10T07:20:50;26.50;22.20
26579;DHT22;14227;47.674;19.320;2023-05-10T07:23:16;26.40;23.00
26579;DHT22;14227;47.674;19.320;2023-05-10T07:25:46;26.70;22.30
26579;DHT22;14227;47.674;19.320;2023-05-10T07:28:12;26.50;22.60
26579;DHT22;14227;47.674;19.320;2023-05-10T07:30:38;26.10;22.90
26579;DHT22;14227;47.674;19.320;2023-05-10T07:33:04;25.50;22.90
26579;DHT22;14227;47.674;19.320;2023-05-10T07:35:30;24.80;24.40
26579;DHT22;14227;47.674;19.320;2023-05-10T07:37:55;24.80;24.50
26579;DHT22;14227;47.674;19.320;2023-05-10T07:40:21;25.10;24.60
26579;DHT22;14227;47.674;19.320;2023-05-10T07:42:47;25.40;24.40
26579;DHT22;14227;47.674;19.320;2023-05-10T07:45:12;26.00;23.40
26579;DHT22;14227;47.674;19.320;2023-05-10T07:47:38;26.10;23.10
26579;DHT22;14227;47.674;19.320;2023-05-10T07:50:04;26.00;22.80
26579;DHT22;14227;47.674;19.320;2023-05-10T07:52:30;24.80;23.80
26579;DHT22;14227;47.674;19.320;2023-05-10T07:54:56;24.80;24.70
26579;DHT22;14227;47.674;19.320;2023-05-10T07:57:22;25.20;24.30
26579;DHT22;14227;47.674;19.320;2023-05-10T07:59:48;26.10;23.00
26579;DHT22;14227;47.674;19.320;2023-05-10T08:02:13;25.50;23.10
26579;DHT22;14227;47.674;19.320;2023-05-10T08:04:39;25.00;23.80
26579;DHT22;14227;47.674;19.320;2023-05-10T08:07:05;24.80;24.10
26579;DHT22;14227;47.674;19.320;2023-05-10T08:09:30;24.50;24.70
26579;DHT22;14227;47.674;19.320;2023-05-10T08:11:56;24.50;24.60
26579;DHT22;14227;47.674;19.320;2023-05-10T08:14:22;24.30;24.70
26579;DHT22;14227;47.674;19.320;2023-05-10T08:16:47;24.30;24.60
26579;DHT22;14227;47.674;19.320;2023-05-10T08:19:13;24.90;24.80
26579;DHT22;14227;47.674;19.320;2023-05-10T08:21:39;26.20;23.50
26579;DHT22;14227;47.674;19.320;2023-05-10T08:24:07;27.50;21.90
26579;DHT22;14227;47.674;19.320;2023-05-10T08:26:33;28.40;21.00
26579;DHT22;14227;47.674;19.320;2023-05-10T08:28:59;28.10;20.30
26579;DHT22;14227;47.674;19.320;2023-05-10T08:31:24;28.10;20.20
26579;DHT22;14227;47.674;19.320;2023-05-10T08:33:50;28.40;20.20
26579;DHT22;14227;47.674;19.320;2023-05-10T08:36:18;27.90;20.20
26579;DHT22;14227;47.674;19.320;2023-05-10T08:38:49;27.50;21.30
26579;DHT22;14227;47.674;19.320;2023-05-10T08:41:15;26.80;21.70
26579;DHT22;14227;47.674;19.320;2023-05-10T08:43:41;26.30;22.50
26579;DHT22;14227;47.674;19.320;2023-05-10T08:46:17;26.50;22.50
26579;DHT22;14227;47.674;19.320;2023-05-10T08:48:44;26.70;22.10
26579;DHT22;14227;47.674;19.320;2023-05-10T08:51:14;26.10;22.90
26579;DHT22;14227;47.674;19.320;2023-05-10T08:53:40;25.40;23.30
26579;DHT22;14227;47.674;19.320;2023-05-10T08:56:06;24.50;24.30
26579;DHT22;14227;47.674;19.320;2023-05-10T08:58:32;23.90;25.10
26579;DHT22;14227;47.674;19.320;2023-05-10T09:00:59;24.10;25.20
26579;DHT22;14227;47.674;19.320;2023-05-10T09:03:26;24.70;24.60
26579;DHT22;14227;47.674;19.320;2023-05-10T09:05:52;25.00;24.20
26579;DHT22;14227;47.674;19.320;2023-05-10T09:08:18;25.20;24.00
26579;DHT22;14227;47.674;19.320;2023-05-10T09:10:44;25.00;23.90
26579;DHT22;14227;47.674;19.320;2023-05-10T09:13:14;25.60;23.20
26579;DHT22;14227;47.674;19.320;2023-05-10T09:15:44;27.00;22.10
26579;DHT22;14227;47.674;19.320;2023-05-10T09:18:10;27.20;21.20
26579;DHT22;14227;47.674;19.320;2023-05-10T09:20:36;27.00;21.40
26579;DHT22;14227;47.674;19.320;2023-05-10T09:23:01;26.50;21.70
26579;DHT22;14227;47.674;19.320;2023-05-10T09:25:27;26.20;21.90
26579;DHT22;14227;47.674;19.320;2023-05-10T09:27:52;26.00;22.00
26579;DHT22;14227;47.674;19.320;2023-05-10T09:30:29;25.50;22.50
26579;DHT22;14227;47.674;19.320;2023-05-10T09:32:57;25.20;23.00
26579;DHT22;14227;47.674;19.320;2023-05-10T09:35:24;25.10;23.70
26579;DHT22;14227;47.674;19.320;2023-05-10T09:37:52;25.40;23.40
26579;DHT22;14227;47.674;19.320;2023-05-10T09:40:26;25.80;23.20
26579;DHT22;14227;47.674;19.320;2023-05-10T09:42:59;26.00;22.90
26579;DHT22;14227;47.674;19.320;2023-05-10T09:45:35;25.50;22.50
26579;DHT22;14227;47.674;19.320;2023-05-10T09:48:02;25.10;23.10
26579;DHT22;14227;47.674;19.320;2023-05-10T09:50:29;24.80;23.50
26579;DHT22;14227;47.674;19.320;2023-05-10T09:53:04;25.20;23.60
26579;DHT22;14227;47.674;19.320;2023-05-10T09:55:39;26.30;22.60
26579;DHT22;14227;47.674;19.320;2023-05-10T09:58:06;27.10;21.60
26579;DHT22;14227;47.674;19.320;2023-05-10T10:00:37;26.80;21.00
26579;DHT22;14227;47.674;19.320;2023-05-10T10:03:03;26.70;21.70
26579;DHT22;14227;47.674;19.320;2023-05-10T10:05:33;27.00;21.50
26579;DHT22;14227;47.674;19.320;2023-05-10T10:08:04;27.80;20.30
26579;DHT22;14227;47.674;19.320;2023-05-10T10:10:31;27.60;20.20
26579;DHT22;14227;47.674;19.320;2023-05-10T10:12:58;26.90;20.80
26579;DHT22;14227;47.674;19.320;2023-05-10T10:15:24;26.60;21.20
26579;DHT22;14227;47.674;19.320;2023-05-10T10:17:51;27.20;21.00
26579;DHT22;14227;47.674;19.320;2023-05-10T10:20:18;27.90;19.80
26579;DHT22;14227;47.674;19.320;2023-05-10T10:22:44;27.60;19.50
26579;DHT22;14227;47.674;19.320;2023-05-10T10:25:15;26.90;20.00
26579;DHT22;14227;47.674;19.320;2023-05-10T10:35:32;25.20;21.90
26579;DHT22;14227;47.674;19.320;2023-05-10T10:37:58;25.20;22.30
26579;DHT22;14227;47.674;19.320;2023-05-10T10:40:32;25.00;22.70
26579;DHT22;14227;47.674;19.320;2023-05-10T10:43:20;25.00;23.00
26579;DHT22;14227;47.674;19.320;2023-05-10T10:46:09;24.80;22.10
26579;DHT22;14227;47.674;19.320;2023-05-10T10:48:36;24.70;22.50
26579;DHT22;14227;47.674;19.320;2023-05-10T10:51:02;24.80;22.70
26579;DHT22;14227;47.674;19.320;2023-05-10T10:53:28;24.80;23.00
26579;DHT22;14227;47.674;19.320;2023-05-10T10:56:11;24.50;22.60
26579;DHT22;14227;47.674;19.320;2023-05-10T10:58:39;24.20;23.10
26579;DHT22;14227;47.674;19.320;2023-05-10T11:01:15;23.90;23.10
26579;DHT22;14227;47.674;19.320;2023-05-10T11:06:30;23.90;23.40
26579;DHT22;14227;47.674;19.320;2023-05-10T11:08:59;24.40;23.00
26579;DHT22;14227;47.674;19.320;2023-05-10T11:11:30;24.70;23.40
26579;DHT22;14227;47.674;19.320;2023-05-10T11:14:06;24.80;22.90
26579;DHT22;14227;47.674;19.320;2023-05-10T11:16:45;25.10;22.80
26579;DHT22;14227;47.674;19.320;2023-05-10T11:19:15;25.30;22.90
26579;DHT22;14227;47.674;19.320;2023-05-10T11:24:31;25.80;21.80
26579;DHT22;14227;47.674;19.320;2023-05-10T11:26:58;25.80;21.80
26579;DHT22;14227;47.674;19.320;2023-05-10T11:29:24;25.80;22.00
26579;DHT22;14227;47.674;19.320;2023-05-10T11:31:51;25.60;22.00
26579;DHT22;14227;47.674;19.320;2023-05-10T11:34:32;25.50;22.40
26579;DHT22;14227;47.674;19.320;2023-05-10T11:37:01;25.30;22.00
26579;DHT22;14227;47.674;19.320;2023-05-10T11:39:28;25.20;22.40
26579;DHT22;14227;47.674;19.320;2023-05-10T11:41:54;24.90;22.30
26579;DHT22;14227;47.674;19.320;2023-05-10T11:44:20;24.80;22.10
26579;DHT22;14227;47.674;19.320;2023-05-10T11:46:59;24.70;22.50
26579;DHT22;14227;47.674;19.320;2023-05-10T11:49:26;25.00;22.30
26579;DHT22;14227;47.674;19.320;2023-05-10T11:51:51;25.30;22.20
26579;DHT22;14227;47.674;19.320;2023-05-10T11:54:17;25.50;22.00
26579;DHT22;14227;47.674;19.320;2023-05-10T11:56:43;25.80;22.00
26579;DHT22;14227;47.674;19.320;2023-05-10T11:59:08;26.10;21.30
26579;DHT22;14227;47.674;19.320;2023-05-10T12:01:34;26.10;21.30
26579;DHT22;14227;47.674;19.320;2023-05-10T12:04:01;26.10;21.30
26579;DHT22;14227;47.674;19.320;2023-05-10T12:06:32;25.90;21.60
26579;DHT22;14227;47.674;19.320;2023-05-10T12:12:17;26.40;20.80
26579;DHT22;14227;47.674;19.320;2023-05-10T12:14:43;26.40;20.60
26579;DHT22;14227;47.674;19.320;2023-05-10T12:17:12;26.30;20.60
26579;DHT22;14227;47.674;19.320;2023-05-10T12:19:39;26.10;21.00
26579;DHT22;14227;47.674;19.320;2023-05-10T12:22:05;25.90;21.60
26579;DHT22;14227;47.674;19.320;2023-05-10T12:24:34;25.60;21.40
26579;DHT22;14227;47.674;19.320;2023-05-10T12:27:04;25.30;21.90
26579;DHT22;14227;47.674;19.320;2023-05-10T12:29:36;25.20;21.90
26579;DHT22;14227;47.674;19.320;2023-05-10T12:32:02;25.00;22.00
26579;DHT22;14227;47.674;19.320;2023-05-10T12:34:32;24.90;22.20
26579;DHT22;14227;47.674;19.320;2023-05-10T12:36:59;24.80;22.10
26579;DHT22;14227;47.674;19.320;2023-05-10T12:39:25;24.70;22.50
26579;DHT22;14227;47.674;19.320;2023-05-10T12:41:51;24.70;22.50
26579;DHT22;14227;47.674;19.320;2023-05-10T12:44:18;24.70;22.10
26579;DHT22;14227;47.674;19.320;2023-05-10T12:46:43;24.60;22.60
26579;DHT22;14227;47.674;19.320;2023-05-10T12:49:09;24.40;22.20
26579;DHT22;14227;47.674;19.320;2023-05-10T12:51:35;24.30;22.40
26579;DHT22;14227;47.674;19.320;2023-05-10T12:54:02;24.30;22.50
26579;DHT22;14227;47.674;19.320;2023-05-10T12:56:28;24.50;22.60
26579;DHT22;14227;47.674;19.320;2023-05-10T12:58:54;24.70;22.40
26579;DHT22;14227;47.674;19.320;2023-05-10T13:01:20;24.90;22.20
26579;DHT22;14227;47.674;19.320;2023-05-10T13:03:46;25.00;22.10
26579;DHT22;14227;47.674;19.320;2023-05-10T13:06:13;25.00;21.80
26579;DHT22;14227;47.674;19.320;2023-05-10T13:08:39;25.20;21.70
26579;DHT22;14227;47.674;19.320;2023-05-10T13:11:05;25.40;21.60
26579;DHT22;14227;47.674;19.320;2023-05-10T13:13:31;25.40;21.90
26579;DHT22;14227;47.674;19.320;2023-05-10T13:15:57;25.80;22.00
26579;DHT22;14227;47.674;19.320;2023-05-10T13:18:23;26.00;21.50
26579;DHT22;14227;47.674;19.320;2023-05-10T13:20:49;26.20;21.20
26579;DHT22;14227;47.674;19.320;2023-05-10T13:23:15;26.20;21.10
26579;DHT22;14227;47.674;19.320;2023-05-10T13:25:41;25.90;21.00
26579;DHT22;14227;47.674;19.320;2023-05-10T13:28:07;25.70;21.60
26579;DHT22;14227;47.674;19.320;2023-05-10T13:30:32;25.70;21.20
26579;DHT22;14227;47.674;19.320;2023-05-10T13:32:58;25.90;20.90
26579;DHT22;14227;47.674;19.320;2023-05-10T13:35:24;26.30;21.00
26579;DHT22;14227;47.674;19.320;2023-05-10T13:37:49;26.70;20.00
26579;DHT22;14227;47.674;19.320;2023-05-10T13:40:15;27.10;19.50
26579;DHT22;14227;47.674;19.320;2023-05-10T13:42:41;26.90;19.10
26579;DHT22;14227;47.674;19.320;2023-05-10T13:45:07;26.70;19.50
26579;DHT22;14227;47.674;19.320;2023-05-10T13:47:33;26.50;19.10
26579;DHT22;14227;47.674;19.320;2023-05-10T13:49:59;26.30;19.10
26579;DHT22;14227;47.674;19.320;2023-05-10T13:52:26;26.50;19.20
26579;DHT22;14227;47.674;19.320;2023-05-10T13:54:52;26.20;19.40
26579;DHT22;14227;47.674;19.320;2023-05-10T13:57:20;26.30;19.50
26579;DHT22;14227;47.674;19.320;2023-05-10T13:59:46;26.30;19.50
26579;DHT22;14227;47.674;19.320;2023-05-10T14:02:12;26.30;19.40
26579;DHT22;14227;47.674;19.320;2023-05-10T14:04:38;26.50;19.00
26579;DHT22;14227;47.674;19.320;2023-05-10T14:07:04;26.60;18.70
26579;DHT22;14227;47.674;19.320;2023-05-10T14:09:30;26.90;18.60
26579;DHT22;14227;47.674;19.320;2023-05-10T14:11:56;27.50;18.60
26579;DHT22;14227;47.674;19.320;2023-05-10T14:14:21;27.60;18.40
26579;DHT22;14227;47.674;19.320;2023-05-10T14:16:47;27.20;18.80
26579;DHT22;14227;47.674;19.320;2023-05-10T14:19:13;27.20;18.80
26579;DHT22;14227;47.674;19.320;2023-05-10T14:21:38;27.10;18.70
26579;DHT22;14227;47.674;19.320;2023-05-10T14:24:04;26.60;18.80
26579;DHT22;14227;47.674;19.320;2023-05-10T14:26:32;26.30;19.50
26579;DHT22;14227;47.674;19.320;2023-05-10T14:28:57;26.20;19.40
26579;DHT22;14227;47.674;19.320;2023-05-10T14:31:24;26.00;19.80
26579;DHT22;14227;47.674;19.320;2023-05-10T14:33:51;25.70;20.00
26579;DHT22;14227;47.674;19.320;2023-05-10T14:36:17;25.40;20.40
26579;DHT22;14227;47.674;19.320;2023-05-10T14:38:43;25.30;21.20
26579;DHT22;14227;47.674;19.320;2023-05-10T14:41:08;25.30;21.70
26579;DHT22;14227;47.674;19.320;2023-05-10T14:43:34;25.20;22.40
26579;DHT22;14227;47.674;19.320;2023-05-10T14:46:00;25.20;22.40
26579;DHT22;14227;47.674;19.320;2023-05-10T14:48:26;25.20;21.20
26579;DHT22;14227;47.674;19.320;2023-05-10T14:50:52;25.20;21.60
26579;DHT22;14227;47.674;19.320;2023-05-10T14:53:18;25.10;21.60
26579;DHT22;14227;47.674;19.320;2023-05-10T14:55:43;24.90;21.60
26579;DHT22;14227;47.674;19.320;2023-05-10T14:58:09;24.90;22.20
26579;DHT22;14227;47.674;19.320;2023-05-10T15:00:35;25.10;21.60
26579;DHT22;14227;47.674;19.320;2023-05-10T15:03:01;25.20;21.20
26579;DHT22;14227;47.674;19.320;2023-05-10T15:05:26;25.70;20.40
26579;DHT22;14227;47.674;19.320;2023-05-10T15:07:52;26.10;20.20
26579;DHT22;14227;47.674;19.320;2023-05-10T15:10:18;26.20;19.50
26579;DHT22;14227;47.674;19.320;2023-05-10T15:12:43;25.90;20.00
26579;DHT22;14227;47.674;19.320;2023-05-10T15:15:09;25.80;20.50
26579;DHT22;14227;47.674;19.320;2023-05-10T15:17:35;25.60;20.60
26579;DHT22;14227;47.674;19.320;2023-05-10T15:20:01;25.40;20.50
26579;DHT22;14227;47.674;19.320;2023-05-10T15:22:29;25.20;21.10
26579;DHT22;14227;47.674;19.320;2023-05-10T15:24:55;25.10;21.40
26579;DHT22;14227;47.674;19.320;2023-05-10T15:27:21;25.00;21.60
26579;DHT22;14227;47.674;19.320;2023-05-10T15:29:46;24.90;22.20
26579;DHT22;14227;47.674;19.320;2023-05-10T15:32:13;24.80;22.10
26579;DHT22;14227;47.674;19.320;2023-05-10T15:34:39;24.90;22.20
26579;DHT22;14227;47.674;19.320;2023-05-10T15:37:05;24.80;22.10
26579;DHT22;14227;47.674;19.320;2023-05-10T15:39:30;24.80;22.10
26579;DHT22;14227;47.674;19.320;2023-05-10T15:41:56;24.70;22.10
26579;DHT22;14227;47.674;19.320;2023-05-10T15:44:22;24.50;22.70
26579;DHT22;14227;47.674;19.320;2023-05-10T15:46:47;24.40;23.20
26579;DHT22;14227;47.674;19.320;2023-05-10T15:49:13;24.30;23.70
26579;DHT22;14227;47.674;19.320;2023-05-10T15:51:39;24.20;23.90
26579;DHT22;14227;47.674;19.320;2023-05-10T15:54:05;24.00;24.10
26579;DHT22;14227;47.674;19.320;2023-05-10T15:56:32;24.00;24.40
26579;DHT22;14227;47.674;19.320;2023-05-10T15:58:58;23.90;24.60
26579;DHT22;14227;47.674;19.320;2023-05-10T16:01:24;23.50;24.60
26579;DHT22;14227;47.674;19.320;2023-05-10T16:03:50;23.00;25.40
26579;DHT22;14227;47.674;19.320;2023-05-10T16:06:16;22.90;25.40
26579;DHT22;14227;47.674;19.320;2023-05-10T16:08:41;22.60;25.10
26579;DHT22;14227;47.674;19.320;2023-05-10T16:11:07;22.20;25.60
26579;DHT22;14227;47.674;19.320;2023-05-10T16:13:33;21.90;26.00
26579;DHT22;14227;47.674;19.320;2023-05-10T16:15:59;21.80;26.20
26579;DHT22;14227;47.674;19.320;2023-05-10T16:18:26;21.80;26.20
26579;DHT22;14227;47.674;19.320;2023-05-10T16:20:52;21.80;26.00
26579;DHT22;14227;47.674;19.320;2023-05-10T16:23:18;21.60;26.10
26579;DHT22;14227;47.674;19.320;2023-05-10T16:25:44;21.40;26.20
26579;DHT22;14227;47.674;19.320;2023-05-10T16:28:10;21.30;26.30
26579;DHT22;14227;47.674;19.320;2023-05-10T16:33:58;21.00;26.80
26579;DHT22;14227;47.674;19.320;2023-05-10T16:36:23;20.90;26.70